Time;durP1;ratioP1;P1;durP2;ratioP2;P2;SDS_P1;SDS_P2;PMS_P1;PMS_P2;Temp;Humidity;BMP_temperature;BMP_pressure;BME280_temperature;BME280_humidity;BME280_pressure;Samples;Min_cycle;Max_cycle;Signal;HPM_P1;HPM_P2
2024/01/16 06:47:25;;;;;;;2.10;1.40;;;22.90;51.70;;;;;;5032660;28;20812;-85
2024/01/16 06:49:52;;;;;;;2.37;1.50;;;22.90;51.80;;;;;;5036468;28;20541;-87
2024/01/16 06:52:20;;;;;;;2.20;1.40;;;22.90;50.90;;;;;;5035073;28;21000;-88
2024/01/16 06:54:46;;;;;;;2.17;1.40;;;22.90;51.40;;;;;;5036037;28;20453;-87
2024/01/16 06:57:14;;;;;;;2.00;1.50;;;22.90;51.50;;;;;;5065093;28;20476;-87
2024/01/16 06:59:40;;;;;;;3.40;1.53;;;22.90;51.60;;;;;;5088105;28;20484;-88
2024/01/16 07:02:08;;;;;;;3.03;1.50;;;22.90;51.60;;;;;;5085136;28;20429;-87
2024/01/16 07:04:36;;;;;;;5.50;1.30;;;22.90;51.60;;;;;;5068863;28;20963;-87
2024/01/16 07:07:03;;;;;;;1.70;1.40;;;22.90;51.50;;;;;;5059492;28;20516;-87
2024/01/16 07:09:30;;;;;;;2.10;1.50;;;22.90;51.40;;;;;;5075478;28;20442;-87
2024/01/16 07:11:57;;;;;;;2.10;1.50;;;22.90;51.40;;;;;;5075384;28;20528;-88
2024/01/16 07:14:24;;;;;;;2.23;1.73;;;22.90;51.50;;;;;;5075124;28;20535;-86
2024/01/16 07:16:51;;;;;;;2.53;1.67;;;22.90;51.30;;;;;;5075572;28;20531;-88
2024/01/16 07:19:18;;;;;;;2.80;1.70;;;23.00;51.40;;;;;;5075254;28;20984;-87
2024/01/16 07:21:46;;;;;;;1.90;1.57;;;23.00;51.20;;;;;;5075360;28;20835;-87
2024/01/16 07:24:13;;;;;;;2.13;1.10;;;23.00;51.30;;;;;;5074414;28;20480;-88
2024/01/16 07:26:41;;;;;;;2.17;1.60;;;23.00;51.30;;;;;;5075136;28;20439;-88
2024/01/16 07:29:08;;;;;;;1.70;1.37;;;23.00;51.30;;;;;;5075177;28;20494;-87
2024/01/16 07:31:35;;;;;;;2.40;1.60;;;23.00;51.30;;;;;;5074636;28;20445;-86
2024/01/16 07:34:02;;;;;;;2.20;1.43;;;23.00;51.30;;;;;;5075057;28;20528;-89
2024/01/16 07:36:29;;;;;;;2.23;1.67;;;23.00;51.30;;;;;;5074737;28;20528;-87
2024/01/16 07:38:58;;;;;;;2.00;1.50;;;23.00;51.20;;;;;;5074722;28;20498;-87
2024/01/16 07:41:24;;;;;;;1.90;1.40;;;23.00;51.00;;;;;;5074943;28;20433;-89
2024/01/16 07:43:51;;;;;;;2.07;1.40;;;23.10;51.20;;;;;;5074710;28;20465;-90
2024/01/16 07:46:18;;;;;;;2.10;1.40;;;23.00;51.20;;;;;;5074971;28;20475;-86
2024/01/16 07:48:45;;;;;;;1.90;1.50;;;23.00;51.30;;;;;;5074595;28;20711;-88
2024/01/16 07:51:12;;;;;;;1.80;1.50;;;23.00;51.30;;;;;;5074866;28;20917;-90
2024/01/16 07:53:39;;;;;;;2.37;1.43;;;23.00;51.20;;;;;;5074482;28;20539;-88
2024/01/16 07:56:09;;;;;;;1.90;1.50;;;23.00;51.20;;;;;;5074538;28;20532;-86
2024/01/16 07:58:36;;;;;;;2.83;1.60;;;23.00;51.40;;;;;;5073970;28;20440;-89
2024/01/16 08:01:03;;;;;;;2.53;1.73;;;23.00;51.10;;;;;;5073839;28;20518;-90
2024/01/16 08:03:30;;;;;;;2.40;1.60;;;23.00;51.10;;;;;;5073692;28;20447;-86
2024/01/16 08:05:58;;;;;;;1.80;1.50;;;23.00;51.10;;;;;;5074025;28;20470;-89
2024/01/16 08:08:25;;;;;;;1.80;1.50;;;23.00;51.00;;;;;;5073600;28;20449;-87
2024/01/16 08:10:52;;;;;;;1.70;1.30;;;23.00;51.10;;;;;;5073594;28;20475;-86
2024/01/16 08:13:20;;;;;;;2.93;1.70;;;23.00;51.00;;;;;;5073827;28;20465;-86
2024/01/16 08:15:47;;;;;;;2.10;1.60;;;23.00;51.00;;;;;;5073649;28;20451;-86
2024/01/16 08:18:15;;;;;;;3.93;2.57;;;23.00;51.00;;;;;;5073370;28;20436;-86
2024/01/16 08:20:42;;;;;;;5.47;1.67;;;23.00;51.00;;;;;;5073098;28;20490;-87
2024/01/16 08:23:09;;;;;;;3.93;1.70;;;23.00;50.90;;;;;;5073201;28;20445;-88
2024/01/16 08:25:38;;;;;;;2.87;1.70;;;23.00;50.90;;;;;;5073534;28;20437;-86
2024/01/16 08:28:05;;;;;;;2.00;1.40;;;23.00;50.90;;;;;;5073744;28;20437;-86
2024/01/16 08:30:33;;;;;;;2.20;1.77;;;23.00;50.80;;;;;;5073599;28;20432;-88
2024/01/16 08:33:00;;;;;;;2.37;1.60;;;23.00;50.80;;;;;;5073556;28;20958;-86
2024/01/16 08:35:27;;;;;;;1.83;1.40;;;23.00;51.40;;;;;;5073159;28;20433;-86
2024/01/16 08:37:54;;;;;;;13.17;2.80;;;23.00;50.80;;;;;;5073764;28;20447;-86
2024/01/16 08:40:21;;;;;;;3.57;1.80;;;23.00;51.40;;;;;;5073602;28;20579;-87
2024/01/16 08:42:51;;;;;;;2.83;1.70;;;23.10;50.40;;;;;;5074043;28;20560;-90
2024/01/16 08:45:18;;;;;;;2.80;1.70;;;23.00;50.40;;;;;;5074462;28;20433;-90
2024/01/16 08:47:46;;;;;;;2.53;1.50;;;23.10;50.70;;;;;;5073615;28;20914;-87
2024/01/16 08:50:14;;;;;;;2.10;1.43;;;23.00;50.60;;;;;;5073660;28;20436;-87
2024/01/16 08:52:41;;;;;;;2.60;1.90;;;23.00;50.50;;;;;;5073692;28;20483;-91
2024/01/16 08:55:09;;;;;;;1.67;1.37;;;23.00;50.50;;;;;;5073443;28;20436;-88
2024/01/16 08:57:37;;;;;;;2.13;1.40;;;23.00;50.50;;;;;;5073899;28;20441;-90
2024/01/16 09:00:06;;;;;;;2.90;1.67;;;23.00;51.10;;;;;;5075443;28;20484;-88
2024/01/16 09:02:32;;;;;;;2.10;1.80;;;23.00;50.60;;;;;;5073697;28;21001;-90
2024/01/16 09:05:00;;;;;;;2.40;1.60;;;23.00;50.60;;;;;;5075868;28;20531;-88
2024/01/16 09:07:27;;;;;;;2.13;1.50;;;23.00;50.50;;;;;;5075085;28;20454;-87
2024/01/16 09:09:54;;;;;;;2.10;1.70;;;22.90;50.50;;;;;;5074804;28;20536;-88
2024/01/16 09:12:21;;;;;;;3.07;1.80;;;23.00;50.60;;;;;;5072943;28;20898;-88
2024/01/16 09:14:48;;;;;;;1.93;1.30;;;23.00;50.50;;;;;;5072971;28;20493;-89
2024/01/16 09:17:15;;;;;;;1.53;1.20;;;23.00;50.50;;;;;;5073203;28;20986;-88
2024/01/16 09:19:42;;;;;;;2.53;1.30;;;23.00;50.50;;;;;;5073026;28;20476;-89
2024/01/16 09:22:10;;;;;;;2.20;1.40;;;23.00;50.50;;;;;;5072896;28;20542;-91
2024/01/16 09:24:37;;;;;;;3.33;1.50;;;23.00;50.60;;;;;;5072848;28;20523;-88
2024/01/16 09:27:06;;;;;;;2.20;1.40;;;23.00;50.60;;;;;;5073506;28;20539;-87
2024/01/16 09:29:33;;;;;;;3.00;1.77;;;23.00;50.50;;;;;;5073073;28;20991;-88
2024/01/16 09:32:00;;;;;;;2.67;1.50;;;23.00;50.50;;;;;;5073151;28;21006;-88
2024/01/16 09:34:26;;;;;;;2.07;1.30;;;23.00;50.50;;;;;;5073103;28;20527;-88
2024/01/16 09:36:53;;;;;;;2.43;1.30;;;23.00;50.50;;;;;;5073127;28;20527;-88
2024/01/16 09:39:21;;;;;;;2.37;1.70;;;23.00;50.40;;;;;;5072906;28;20519;-88
2024/01/16 09:41:49;;;;;;;1.77;1.27;;;23.00;50.50;;;;;;5073246;28;20547;-88
2024/01/16 09:44:16;;;;;;;3.10;1.10;;;23.00;50.40;;;;;;5073256;28;20531;-89
2024/01/16 09:46:47;;;;;;;2.33;1.27;;;23.00;50.20;;;;;;5074560;28;20531;-88
2024/01/16 09:49:16;;;;;;;2.03;1.33;;;23.10;50.30;;;;;;5076567;28;20564;-88
2024/01/16 09:51:43;;;;;;;5.30;1.60;;;23.10;50.60;;;;;;5076673;28;20436;-88
2024/01/16 09:54:10;;;;;;;3.03;1.50;;;23.00;50.40;;;;;;5076681;28;20447;-89
2024/01/16 09:56:43;;;;;;;3.17;1.50;;;23.10;50.50;;;;;;5076900;28;20440;-88
2024/01/16 09:59:11;;;;;;;2.30;1.50;;;23.10;50.40;;;;;;5076561;28;20432;-88
2024/01/16 10:01:39;;;;;;;5.23;1.63;;;23.10;50.40;;;;;;5076545;28;20484;-88
2024/01/16 10:04:06;;;;;;;3.57;1.57;;;23.10;50.60;;;;;;5076515;28;20439;-87
2024/01/16 10:06:34;;;;;;;2.10;1.20;;;23.10;50.50;;;;;;5083952;28;20451;-90
2024/01/16 10:09:01;;;;;;;3.00;1.63;;;23.10;50.50;;;;;;5101166;28;20428;-88
2024/01/16 10:11:29;;;;;;;3.13;1.37;;;23.10;50.40;;;;;;5097877;28;20459;-86
2024/01/16 10:13:59;;;;;;;4.60;1.83;;;23.10;50.40;;;;;;5079103;28;20777;-86
2024/01/16 10:17:02;;;;;;;3.37;1.70;;;23.20;50.50;;;;;;5077532;28;20449;-86
2024/01/16 10:19:30;;;;;;;2.93;1.57;;;23.20;50.30;;;;;;5076390;28;20444;-90
2024/01/16 10:22:02;;;;;;;1.70;1.23;;;23.20;50.30;;;;;;5076256;28;20468;-87
2024/01/16 10:24:29;;;;;;;3.07;1.63;;;23.20;50.30;;;;;;5076147;28;20439;-89
2024/01/16 10:27:01;;;;;;;2.10;1.23;;;23.20;50.30;;;;;;5076161;28;20436;-87
2024/01/16 10:29:29;;;;;;;2.87;1.50;;;23.20;50.40;;;;;;5076431;28;20425;-86
2024/01/16 10:31:56;;;;;;;3.17;1.43;;;23.20;50.50;;;;;;5076023;28;20523;-86
2024/01/16 10:34:23;;;;;;;2.20;1.30;;;23.20;50.50;;;;;;5075989;28;20515;-85
2024/01/16 10:36:52;;;;;;;6.00;1.27;;;23.20;50.40;;;;;;5073071;28;22140;-89
2024/01/16 10:39:19;;;;;;;1.70;1.27;;;23.20;50.30;;;;;;5055897;28;21011;-88
2024/01/16 10:41:56;;;;;;;2.60;1.50;;;23.20;50.40;;;;;;5055822;28;20497;-87
2024/01/16 10:44:22;;;;;;;2.33;1.50;;;23.20;50.20;;;;;;5056370;28;20479;-86
2024/01/16 10:46:51;;;;;;;7.93;1.73;;;23.20;50.20;;;;;;5056108;28;20445;-90
2024/01/16 10:49:17;;;;;;;3.60;1.30;;;23.20;50.40;;;;;;5055809;28;20552;-87
2024/01/16 10:51:45;;;;;;;2.83;1.67;;;23.20;50.40;;;;;;5055466;28;20544;-87
2024/01/16 10:54:14;;;;;;;3.63;1.30;;;23.20;50.40;;;;;;5055538;28;20452;-87
2024/01/16 10:56:45;;;;;;;3.60;1.70;;;23.30;50.40;;;;;;5055690;28;20442;-87
2024/01/16 10:59:19;;;;;;;7.17;1.93;;;23.30;50.40;;;;;;5054778;28;20437;-88
2024/01/16 11:01:51;;;;;;;1.80;1.20;;;23.20;50.30;;;;;;5055715;28;21013;-90
2024/01/16 11:04:20;;;;;;;2.33;1.33;;;23.30;50.30;;;;;;5055374;28;20448;-88
2024/01/16 11:06:48;;;;;;;5.10;1.53;;;23.30;50.30;;;;;;5056169;28;20437;-88
2024/01/16 11:09:16;;;;;;;2.87;1.40;;;23.30;50.30;;;;;;5068499;28;20472;-89
2024/01/16 11:11:44;;;;;;;2.80;1.30;;;23.20;50.20;;;;;;5080001;28;20513;-89
2024/01/16 11:14:12;;;;;;;7.30;2.27;;;23.30;50.20;;;;;;5079919;28;20426;-87
2024/01/16 11:16:41;;;;;;;3.40;1.73;;;23.20;50.20;;;;;;5068234;28;20469;-86
2024/01/16 11:19:11;;;;;;;3.90;1.77;;;23.20;50.10;;;;;;5057285;28;20456;-89
2024/01/16 11:21:40;;;;;;;3.33;1.40;;;23.30;50.30;;;;;;5056586;28;20487;-91
2024/01/16 11:24:07;;;;;;;2.60;1.40;;;23.20;50.10;;;;;;5054853;28;20540;-89
2024/01/16 11:26:36;;;;;;;2.73;1.40;;;23.30;50.50;;;;;;5054686;28;20449;-91
2024/01/16 11:29:34;;;;;;;2.37;1.27;;;23.30;50.30;;;;;;5055027;28;20829;-89
2024/01/16 11:32:04;;;;;;;2.77;1.37;;;23.30;50.60;;;;;;5054944;28;20536;-87
2024/01/16 11:34:57;;;;;;;3.03;1.50;;;23.30;50.70;;;;;;5055278;28;20441;-87
2024/01/16 11:37:33;;;;;;;3.20;1.57;;;23.30;50.40;;;;;;5052176;28;20485;-87
2024/01/16 11:40:21;;;;;;;2.63;1.60;;;23.30;50.50;;;;;;5054352;28;20437;-87
2024/01/16 11:42:49;;;;;;;2.57;1.40;;;23.30;50.50;;;;;;5054321;28;21051;-87
2024/01/16 11:45:49;;;;;;;4.00;1.23;;;23.30;50.50;;;;;;5054401;28;20512;-87
2024/01/16 11:48:17;;;;;;;5.80;1.80;;;23.30;50.60;;;;;;5054471;28;20469;-87
2024/01/16 11:50:45;;;;;;;3.17;1.80;;;23.30;50.50;;;;;;5054309;28;20540;-87
2024/01/16 11:53:33;;;;;;;4.70;1.57;;;23.40;50.00;;;;;;5054478;28;20533;-86
2024/01/16 11:56:34;;;;;;;4.73;1.50;;;23.40;50.10;;;;;;5054271;28;20441;-88
2024/01/16 11:59:18;;;;;;;3.10;1.70;;;23.40;50.40;;;;;;5054152;28;20815;-88
2024/01/16 12:01:46;;;;;;;2.60;1.60;;;23.40;50.40;;;;;;5054287;28;20499;-88
2024/01/16 12:04:18;;;;;;;2.67;1.73;;;23.40;50.40;;;;;;5054189;28;20445;-87
2024/01/16 12:06:45;;;;;;;2.00;1.23;;;23.40;50.30;;;;;;5054563;28;20525;-90
2024/01/16 12:09:17;;;;;;;2.83;1.37;;;23.40;50.40;;;;;;5053595;28;20532;-88
2024/01/16 12:11:45;;;;;;;2.60;1.20;;;23.50;50.40;;;;;;5053389;28;20523;-88
2024/01/16 12:14:12;;;;;;;2.30;1.30;;;23.40;50.30;;;;;;5053487;28;20485;-90
2024/01/16 12:16:39;;;;;;;3.17;1.40;;;23.50;50.40;;;;;;5054061;28;20446;-89
2024/01/16 12:19:07;;;;;;;2.43;1.40;;;23.50;50.40;;;;;;5054178;28;20449;-87
2024/01/16 12:21:36;;;;;;;3.23;1.30;;;23.50;50.40;;;;;;5053884;28;20477;-90
2024/01/16 12:24:03;;;;;;;2.63;1.50;;;23.60;50.40;;;;;;5054143;28;20441;-89
2024/01/16 12:26:32;;;;;;;2.70;1.40;;;23.60;50.80;;;;;;5054101;28;20445;-87
2024/01/16 12:29:00;;;;;;;2.77;1.33;;;23.60;50.40;;;;;;5054298;28;20545;-88
2024/01/16 12:31:28;;;;;;;4.27;1.63;;;23.60;50.40;;;;;;5054025;28;20540;-88
2024/01/16 12:34:05;;;;;;;2.23;1.10;;;23.60;51.00;;;;;;5054291;28;20453;-88
2024/01/16 12:36:32;;;;;;;3.67;1.70;;;23.60;50.40;;;;;;5053721;28;20528;-87
2024/01/16 12:38:58;;;;;;;2.67;1.30;;;23.60;50.60;;;;;;5054025;28;20541;-88
2024/01/16 12:41:27;;;;;;;2.57;1.40;;;23.50;50.70;;;;;;5053678;28;20580;-87
2024/01/16 12:43:55;;;;;;;2.47;1.07;;;23.60;50.90;;;;;;5053645;28;20477;-88
2024/01/16 12:46:22;;;;;;;1.70;1.13;;;23.60;50.80;;;;;;5053518;28;20476;-88
2024/01/16 12:48:51;;;;;;;1.50;1.20;;;23.60;50.90;;;;;;5053677;28;20461;-91
2024/01/16 12:51:24;;;;;;;1.90;1.30;;;23.60;50.90;;;;;;5053602;28;20506;-87
2024/01/16 12:53:50;;;;;;;2.13;1.47;;;23.60;50.80;;;;;;5053157;28;20528;-88
2024/01/16 12:56:20;;;;;;;2.33;1.10;;;23.60;50.80;;;;;;5053207;28;20540;-88
2024/01/16 12:58:47;;;;;;;2.33;1.60;;;23.60;50.70;;;;;;5054041;28;20434;-89
2024/01/16 13:01:27;;;;;;;2.07;1.20;;;23.60;50.70;;;;;;5053294;28;20477;-89
2024/01/16 13:03:55;;;;;;;4.47;1.40;;;23.60;50.70;;;;;;5053153;28;21035;-89
2024/01/16 13:06:23;;;;;;;2.07;1.30;;;23.60;50.40;;;;;;5053557;28;20826;-90
2024/01/16 13:08:50;;;;;;;3.23;1.70;;;23.60;50.10;;;;;;5053168;28;20453;-90
2024/01/16 13:11:19;;;;;;;2.47;1.43;;;23.60;49.90;;;;;;5053553;28;20496;-88
2024/01/16 13:13:47;;;;;;;3.27;1.50;;;23.60;49.90;;;;;;5053063;28;20936;-89
2024/01/16 13:16:15;;;;;;;1.90;1.40;;;23.60;50.10;;;;;;5055751;28;20441;-89
2024/01/16 13:18:43;;;;;;;2.63;1.40;;;23.60;49.90;;;;;;5077880;28;20433;-89
2024/01/16 13:21:10;;;;;;;4.23;1.33;;;23.60;50.20;;;;;;5078376;28;20481;-91
2024/01/16 13:23:37;;;;;;;2.50;1.60;;;23.60;50.20;;;;;;5060295;28;20468;-93
2024/01/16 13:26:07;;;;;;;2.07;1.23;;;23.60;49.80;;;;;;5061104;28;20992;-93
2024/01/16 13:29:24;;;;;;;4.63;1.50;;;23.60;50.00;;;;;;5051174;23;20493;-92
2024/01/16 13:31:54;;;;;;;2.77;1.60;;;23.60;50.00;;;;;;5040057;28;20497;-93
2024/01/16 13:34:23;;;;;;;1.90;1.47;;;23.50;50.00;;;;;;5042222;28;20496;-91
2024/01/16 13:36:53;;;;;;;2.07;1.47;;;23.50;49.90;;;;;;5040832;28;20472;-91
2024/01/16 13:39:20;;;;;;;2.77;1.40;;;23.50;49.90;;;;;;5040415;28;20434;-92
2024/01/16 13:41:47;;;;;;;4.80;1.37;;;23.50;50.00;;;;;;5041052;28;20512;-92
2024/01/16 13:44:14;;;;;;;2.33;1.30;;;23.50;50.00;;;;;;5040413;28;20452;-92
2024/01/16 13:46:41;;;;;;;2.20;1.50;;;23.50;50.00;;;;;;5039473;28;20499;-92
2024/01/16 13:49:07;;;;;;;2.20;1.40;;;23.50;50.00;;;;;;5039308;28;20490;-92
2024/01/16 13:51:36;;;;;;;2.13;1.30;;;23.40;50.00;;;;;;5041819;28;20466;-92
2024/01/16 13:54:03;;;;;;;2.83;1.57;;;23.40;50.10;;;;;;5041461;28;20438;-92
2024/01/16 13:56:31;;;;;;;2.30;1.50;;;23.40;50.00;;;;;;5039827;28;20503;-92
2024/01/16 13:58:59;;;;;;;1.87;1.50;;;23.40;50.00;;;;;;5041494;28;20538;-92
2024/01/16 14:01:29;;;;;;;2.17;1.30;;;23.40;49.90;;;;;;5037973;28;20605;-92
2024/01/16 14:03:56;;;;;;;2.60;1.30;;;23.40;50.10;;;;;;5039438;28;20537;-93
2024/01/16 14:06:23;;;;;;;2.03;1.33;;;23.40;50.10;;;;;;5040320;28;20482;-92
2024/01/16 14:08:51;;;;;;;2.30;1.40;;;23.40;50.10;;;;;;5039737;28;20779;-92
2024/01/16 14:11:20;;;;;;;3.20;1.20;;;23.40;50.10;;;;;;5040545;28;20519;-94
2024/01/16 14:13:47;;;;;;;1.97;1.53;;;23.40;50.00;;;;;;5039699;28;20784;-94
2024/01/16 14:16:14;;;;;;;2.57;1.37;;;23.40;50.00;;;;;;5042265;28;20532;-93
2024/01/16 14:18:40;;;;;;;2.57;1.30;;;23.40;50.00;;;;;;5039549;28;20508;-93
2024/01/16 14:21:07;;;;;;;3.97;1.60;;;23.40;50.00;;;;;;5042560;28;20888;-93
2024/01/16 14:23:34;;;;;;;2.10;1.20;;;23.40;50.00;;;;;;5040356;28;20521;-94
2024/01/16 14:26:03;;;;;;;2.83;1.60;;;23.40;50.00;;;;;;5039421;28;20478;-93
2024/01/16 14:28:29;;;;;;;3.77;1.47;;;23.50;50.10;;;;;;5039451;28;20470;-93
2024/01/16 14:30:57;;;;;;;2.77;1.50;;;23.50;50.10;;;;;;5040248;28;20542;-92
2024/01/16 14:33:24;;;;;;;2.87;1.30;;;23.50;50.00;;;;;;5040381;28;20537;-93
2024/01/16 14:35:51;;;;;;;2.13;1.30;;;23.50;50.00;;;;;;5039710;28;20426;-92
2024/01/16 14:38:18;;;;;;;2.20;1.47;;;23.40;49.90;;;;;;5039731;28;20926;-93
2024/01/16 14:40:47;;;;;;;2.20;1.40;;;23.40;50.00;;;;;;5038845;28;20450;-93
2024/01/16 14:43:16;;;;;;;1.83;1.23;;;23.40;50.00;;;;;;5037103;28;20504;-91
2024/01/16 14:45:42;;;;;;;3.20;1.53;;;23.40;50.00;;;;;;5036746;28;20477;-91
2024/01/16 14:48:10;;;;;;;2.97;1.40;;;23.40;50.00;;;;;;5036453;28;20556;-92
2024/01/16 14:50:37;;;;;;;2.80;1.40;;;23.40;50.10;;;;;;5036402;28;20533;-91
2024/01/16 14:53:05;;;;;;;2.27;1.33;;;23.40;50.10;;;;;;5036169;28;20525;-90
2024/01/16 14:55:33;;;;;;;2.60;1.80;;;23.40;50.00;;;;;;5036962;28;20438;-92
2024/01/16 14:58:01;;;;;;;2.10;1.20;;;23.40;49.90;;;;;;5039454;28;20442;-92
2024/01/16 15:00:30;;;;;;;4.43;1.50;;;23.40;49.90;;;;;;5020690;28;20774;-93
2024/01/16 15:02:58;;;;;;;1.83;1.10;;;23.40;50.10;;;;;;5039265;28;20482;-94
2024/01/16 15:05:24;;;;;;;1.87;1.07;;;23.40;50.20;;;;;;5038130;28;20948;-93
2024/01/16 15:07:53;;;;;;;2.53;1.60;;;23.40;50.10;;;;;;5038471;28;20857;-93
2024/01/16 15:10:23;;;;;;;1.67;1.03;;;23.40;49.90;;;;;;5039047;28;20486;-93
2024/01/16 15:12:50;;;;;;;1.60;1.13;;;23.40;50.10;;;;;;5038443;28;20966;-94
2024/01/16 15:15:19;;;;;;;1.90;1.27;;;23.40;50.10;;;;;;5038458;28;20453;-94
2024/01/16 15:17:48;;;;;;;2.00;1.40;;;23.40;50.10;;;;;;5039034;28;20474;-93
2024/01/16 15:20:15;;;;;;;3.00;1.60;;;23.40;50.10;;;;;;5037882;28;20457;-93
2024/01/16 15:22:44;;;;;;;3.00;1.30;;;23.40;50.00;;;;;;5038443;28;20846;-94
2024/01/16 15:25:15;;;;;;;2.40;1.43;;;23.40;50.10;;;;;;5040047;28;20454;-94
2024/01/16 15:27:45;;;;;;;2.17;1.40;;;23.30;50.00;;;;;;5042339;28;20850;-93
2024/01/16 15:30:13;;;;;;;3.00;1.23;;;23.30;50.00;;;;;;5038493;28;20474;-94
2024/01/16 15:32:40;;;;;;;2.43;1.33;;;23.30;50.10;;;;;;5038219;28;20482;-93
2024/01/16 15:35:11;;;;;;;2.80;1.30;;;23.30;50.10;;;;;;5037662;28;20454;-93
2024/01/16 15:37:38;;;;;;;1.83;1.50;;;23.30;50.10;;;;;;5036898;28;20442;-94
2024/01/16 15:40:06;;;;;;;2.10;1.33;;;23.30;50.10;;;;;;5037747;28;20446;-94
2024/01/16 15:42:36;;;;;;;1.93;1.40;;;23.30;50.00;;;;;;5036773;28;20494;-94
2024/01/16 15:45:03;;;;;;;3.60;1.47;;;23.30;50.10;;;;;;5038380;28;20481;-93
2024/01/16 15:47:30;;;;;;;2.13;1.70;;;23.30;50.10;;;;;;5039359;28;20445;-94
2024/01/16 15:49:58;;;;;;;3.77;1.23;;;23.30;50.10;;;;;;5040248;28;20442;-94
2024/01/16 15:52:27;;;;;;;1.80;1.20;;;23.30;50.10;;;;;;5039988;28;20453;-94
2024/01/16 15:54:54;;;;;;;1.93;1.10;;;23.30;50.10;;;;;;5049859;28;20458;-94
2024/01/16 15:57:22;;;;;;;1.77;1.20;;;23.30;50.10;;;;;;5059458;28;20451;-94
2024/01/16 15:59:49;;;;;;;2.30;1.30;;;23.30;50.10;;;;;;5059419;28;20434;-94
2024/01/16 16:02:16;;;;;;;1.70;1.47;;;23.20;49.90;;;;;;5051275;28;20497;-89
2024/01/16 16:04:42;;;;;;;2.07;1.30;;;23.30;49.90;;;;;;5036624;28;20525;-90
2024/01/16 16:07:09;;;;;;;1.80;1.13;;;23.40;50.10;;;;;;5036020;28;20496;-89
2024/01/16 16:09:38;;;;;;;1.93;1.10;;;23.40;49.90;;;;;;5034457;28;20442;-89
2024/01/16 16:12:06;;;;;;;1.80;1.23;;;23.30;49.70;;;;;;5034131;28;20458;-93
2024/01/16 16:14:34;;;;;;;2.33;1.50;;;23.30;49.70;;;;;;5034223;28;20505;-89
2024/01/16 16:17:04;;;;;;;1.70;1.30;;;23.30;49.70;;;;;;5034492;28;20529;-88
2024/01/16 16:19:31;;;;;;;2.37;1.23;;;23.30;49.80;;;;;;5034477;28;20489;-89
2024/01/16 16:21:58;;;;;;;2.63;1.20;;;23.30;49.70;;;;;;5034240;28;20484;-91
2024/01/16 16:24:24;;;;;;;2.30;1.30;;;23.20;49.80;;;;;;5046726;28;20450;-91
2024/01/16 16:26:55;;;;;;;2.83;1.30;;;23.20;49.80;;;;;;5058484;28;20430;-90
2024/01/16 16:29:21;;;;;;;2.63;1.30;;;23.20;49.80;;;;;;5049918;28;20434;-87
2024/01/16 16:31:48;;;;;;;2.37;1.33;;;23.20;49.90;;;;;;5034683;28;20461;-88
2024/01/16 16:34:16;;;;;;;2.23;1.00;;;23.20;49.30;;;;;;5036315;28;20478;-88
2024/01/16 16:36:44;;;;;;;2.13;1.30;;;23.30;49.90;;;;;;5034845;28;20450;-87
2024/01/16 16:39:12;;;;;;;2.13;1.13;;;23.20;49.90;;;;;;5034473;28;20516;-89
2024/01/16 16:41:41;;;;;;;2.30;1.40;;;23.20;50.00;;;;;;5033739;28;20466;-88
2024/01/16 16:44:09;;;;;;;2.23;1.50;;;23.20;50.00;;;;;;5034800;28;20532;-89
2024/01/16 16:46:36;;;;;;;4.10;1.60;;;23.20;49.90;;;;;;5033971;28;20929;-94
2024/01/16 16:49:03;;;;;;;2.53;1.40;;;23.20;50.10;;;;;;5034804;28;20441;-87
2024/01/16 16:51:30;;;;;;;2.23;1.30;;;23.20;50.10;;;;;;5034221;28;20961;-87
2024/01/16 16:53:57;;;;;;;1.70;1.17;;;23.20;50.00;;;;;;5034642;28;20446;-88
2024/01/16 16:56:24;;;;;;;2.73;1.20;;;23.20;50.10;;;;;;5033547;28;20441;-88
2024/01/16 16:58:52;;;;;;;2.00;1.00;;;23.20;50.00;;;;;;5034329;28;20448;-87
2024/01/16 17:01:21;;;;;;;1.83;1.27;;;23.20;50.10;;;;;;5034633;28;20524;-87
2024/01/16 17:03:52;;;;;;;2.33;1.20;;;23.20;50.10;;;;;;5034455;28;20481;-89
2024/01/16 17:06:19;;;;;;;2.30;1.77;;;23.20;50.00;;;;;;5034575;28;20450;-88
2024/01/16 17:08:46;;;;;;;2.50;1.20;;;23.20;50.00;;;;;;5034655;28;20438;-89
2024/01/16 17:11:13;;;;;;;2.27;1.40;;;23.20;50.00;;;;;;5033865;28;20520;-92
2024/01/16 17:13:45;;;;;;;1.70;1.20;;;23.20;50.00;;;;;;5034087;28;20450;-88
2024/01/16 17:16:13;;;;;;;2.37;1.40;;;23.20;49.90;;;;;;5034397;28;20480;-88
2024/01/16 17:18:42;;;;;;;2.10;1.40;;;23.20;50.00;;;;;;5033929;28;20446;-88
2024/01/16 17:21:09;;;;;;;1.60;1.20;;;23.30;50.00;;;;;;5033410;28;20446;-88
2024/01/16 17:23:36;;;;;;;2.10;1.50;;;23.30;50.00;;;;;;5033990;28;20508;-89
2024/01/16 17:26:04;;;;;;;1.80;1.47;;;23.30;49.90;;;;;;5034522;28;20481;-88
2024/01/16 17:28:31;;;;;;;2.30;1.27;;;23.30;50.00;;;;;;5033435;28;20525;-89
2024/01/16 17:30:59;;;;;;;2.57;1.40;;;23.30;50.00;;;;;;5033731;28;20561;-90
2024/01/16 17:33:26;;;;;;;1.70;1.20;;;23.30;50.00;;;;;;5033697;28;20497;-89
2024/01/16 17:35:59;;;;;;;1.93;1.20;;;23.30;50.00;;;;;;5036584;28;21043;-93
2024/01/16 17:38:27;;;;;;;2.33;1.27;;;23.30;50.00;;;;;;5016779;28;20529;-93
2024/01/16 17:40:54;;;;;;;1.57;1.10;;;23.30;49.90;;;;;;5034464;28;20500;-86
2024/01/16 17:43:21;;;;;;;1.90;1.33;;;23.30;50.00;;;;;;5034923;28;20547;-88
2024/01/16 17:45:48;;;;;;;2.33;1.30;;;23.30;49.90;;;;;;5033690;28;20550;-91
2024/01/16 17:48:16;;;;;;;1.97;1.10;;;23.30;50.00;;;;;;5034565;28;20532;-91
2024/01/16 17:50:45;;;;;;;1.70;1.03;;;23.20;49.90;;;;;;5036401;28;20438;-93
2024/01/16 17:53:14;;;;;;;2.23;1.50;;;23.20;49.90;;;;;;5035102;28;20442;-85
2024/01/16 17:55:41;;;;;;;1.90;1.20;;;23.20;49.90;;;;;;5034055;28;20434;-92
2024/01/16 17:58:09;;;;;;;2.20;1.30;;;23.20;49.90;;;;;;5034754;28;20445;-91
2024/01/16 18:00:36;;;;;;;2.20;1.30;;;23.20;50.00;;;;;;5034120;28;21000;-90
2024/01/16 18:03:06;;;;;;;2.47;1.60;;;23.20;49.90;;;;;;5033320;28;20522;-94
2024/01/16 18:05:33;;;;;;;2.20;1.57;;;23.20;49.90;;;;;;5033792;28;20941;-91
2024/01/16 18:08:00;;;;;;;2.33;1.30;;;23.20;49.90;;;;;;5035524;28;20484;-91
2024/01/16 18:10:30;;;;;;;2.57;1.60;;;23.20;49.90;;;;;;5036997;28;20525;-89
2024/01/16 18:12:57;;;;;;;2.30;1.50;;;23.20;49.90;;;;;;5037347;28;20549;-93
2024/01/16 18:15:26;;;;;;;3.83;1.60;;;23.20;49.90;;;;;;5037237;28;20541;-92
2024/01/16 18:17:53;;;;;;;2.00;1.40;;;23.20;49.80;;;;;;5038751;28;20512;-87
2024/01/16 18:20:21;;;;;;;1.90;1.27;;;23.20;48.60;;;;;;5036213;28;20489;-90
2024/01/16 18:22:50;;;;;;;2.90;1.40;;;23.30;48.90;;;;;;5036877;28;20994;-92
2024/01/16 18:25:17;;;;;;;1.60;1.10;;;23.20;49.40;;;;;;5035840;28;20984;-87
2024/01/16 18:27:48;;;;;;;3.27;1.30;;;23.20;49.50;;;;;;5035843;28;20588;-86
2024/01/16 18:30:15;;;;;;;1.93;1.23;;;23.20;49.60;;;;;;5043018;28;20480;-87
2024/01/16 18:32:43;;;;;;;2.10;1.57;;;23.20;49.60;;;;;;5056387;28;20781;-90
2024/01/16 18:35:12;;;;;;;3.60;2.03;;;23.20;49.60;;;;;;5055762;28;20445;-89
2024/01/16 18:37:39;;;;;;;3.10;1.47;;;23.20;49.70;;;;;;5056055;28;20473;-89
2024/01/16 18:40:08;;;;;;;2.93;1.67;;;23.20;49.80;;;;;;5056146;28;20441;-88
2024/01/16 18:42:35;;;;;;;2.47;1.70;;;23.20;49.80;;;;;;5055513;28;20980;-90
2024/01/16 18:45:04;;;;;;;2.70;1.63;;;23.20;49.70;;;;;;5055920;28;20484;-87
2024/01/16 18:47:32;;;;;;;2.17;1.63;;;23.20;49.70;;;;;;5055171;28;20445;-83
2024/01/16 18:49:59;;;;;;;4.47;1.90;;;23.20;49.80;;;;;;5055370;28;20484;-92
2024/01/16 18:52:26;;;;;;;3.90;1.80;;;23.20;49.80;;;;;;5056078;28;21028;-84
2024/01/16 18:54:53;;;;;;;2.60;1.30;;;23.20;49.80;;;;;;5055411;28;20449;-89
2024/01/16 18:57:20;;;;;;;3.20;1.23;;;23.20;49.90;;;;;;5055571;28;20472;-87
2024/01/16 18:59:47;;;;;;;2.90;1.57;;;23.20;50.00;;;;;;5055535;28;20543;-85
2024/01/16 19:02:16;;;;;;;2.20;1.50;;;23.20;50.00;;;;;;5054446;28;20923;-87
2024/01/16 19:04:46;;;;;;;2.67;1.47;;;23.20;50.00;;;;;;5054952;28;20450;-87
2024/01/16 19:07:13;;;;;;;2.47;1.30;;;23.20;50.10;;;;;;5054629;28;20457;-84
2024/01/16 19:09:43;;;;;;;2.27;1.53;;;23.20;50.00;;;;;;5054873;28;20437;-84
2024/01/16 19:12:12;;;;;;;2.87;1.57;;;23.20;50.00;;;;;;5054733;28;20467;-81
2024/01/16 19:14:39;;;;;;;2.33;1.30;;;23.20;50.00;;;;;;5056619;28;20453;-91
2024/01/16 19:17:06;;;;;;;7.73;1.90;;;23.20;50.00;;;;;;5056771;28;20460;-94
2024/01/16 19:19:35;;;;;;;4.33;1.60;;;23.30;49.90;;;;;;5037327;28;20524;-87
2024/01/16 19:22:03;;;;;;;2.60;1.37;;;23.30;49.90;;;;;;5055980;28;20877;-88
2024/01/16 19:24:30;;;;;;;3.07;1.90;;;23.30;49.70;;;;;;5055991;28;20893;-92
2024/01/16 19:26:57;;;;;;;4.33;1.67;;;23.30;49.50;;;;;;5055690;28;20859;-91
2024/01/16 19:32:14;;;;;;;2.67;1.50;;;23.40;49.50;;;;;;5325314;22;20494;-91
2024/01/16 19:34:42;;;;;;;4.33;2.90;;;23.30;49.60;;;;;;5035468;28;20869;-89
2024/01/16 19:37:09;;;;;;;3.13;2.17;;;23.20;47.40;;;;;;5034792;28;20458;-89
2024/01/16 19:39:42;;;;;;;3.80;1.57;;;23.20;48.60;;;;;;5034519;28;20458;-90
2024/01/16 19:42:09;;;;;;;2.33;1.77;;;23.20;49.10;;;;;;5034789;28;20478;-90
2024/01/16 19:44:36;;;;;;;3.70;1.93;;;23.20;49.40;;;;;;5034887;28;20578;-90